Fu Ning Wan — VRDN9 — position and weather

sailwx.info

Track history (hours):
 
Tides and Currents Weather Stations Pressure Air Temp Water Temp Dewpoint Dewpoint Depression Visibility Wind Speed Wind Dir Waves Ship Positions

Fu Ning Wan

Last reported at 2015-Jul-06 01:28 UTC. Time now 2015-Jul-06 02:54 UTC.
Position N 23°03' E 113°19'.

Length 107 m; draft 6.6 m.

Type: Tanker. MMSI: 477003600.

Date/timePositionNaut miles runAvg speedWind from/ knotsBaromVisibWave heightAir tempDewpointWater temp
2015-Jul-06 01:28N 23°03' E 113°19'0 0.0
2015-Jul-06 00:28N 23°03' E 113°19'0 0.0
2015-Jul-05 22:16N 23°03' E 113°19'0 0.0
2015-Jul-05 20:28N 23°03' E 113°19'0 0.0
2015-Jul-05 19:10N 23°03' E 113°19'0 0.0
2015-Jul-05 18:10N 23°03' E 113°19'0 0.0
2015-Jul-05 17:16N 23°03' E 113°19'0 0.0
2015-Jul-05 16:04N 23°03' E 113°19'0 0.0
2015-Jul-05 15:16N 23°03' E 113°19'0 0.0
2015-Jul-05 14:22N 23°03' E 113°19'0 0.0
2015-Jul-05 13:10N 23°03' E 113°19'0 0.0
2015-Jul-05 08:10N 23°03' E 113°19'0 0.0
2015-Jul-05 07:33N 23°03' E 113°19'3 2.7
2015-Jul-05 06:33N 23°02' E 113°21'5 4.9
2015-Jul-05 05:33N 23°05' E 113°26'8 7.8
2015-Jul-05 04:33N 22°59' E 113°32'10 9.5
2015-Jul-05 03:33N 22°50' E 113°35'3511.8
2015-Jul-05 00:33N 22°16' E 113°48'9 7.8
2015-Jul-04 23:22N 22°07' E 113°46'0 0.1
2015-Jul-04 22:22N 22°07' E 113°46'0 0.0
2015-Jul-04 21:28N 22°07' E 113°46'0 0.0
2015-Jul-04 20:28N 22°07' E 113°46'0 0.0
2015-Jul-04 19:22N 22°07' E 113°46'0 0.1
2015-Jul-04 18:28N 22°07' E 113°46'0 0.0
2015-Jul-04 17:28N 22°07' E 113°46'0 0.0
2015-Jul-04 16:28N 22°07' E 113°46'1 1.5
2015-Jul-04 15:33N 22°07' E 113°47'  
2015-Jun-29 10:33N 01°13' E 103°54'6 6.2
2015-Jun-29 09:33N 01°13' E 103°48'2 0.6
2015-Jun-29 06:30N 01°14' E 103°47'0 0.0
2015-Jun-29 05:15N 01°14' E 103°47'0 0.0
2015-Jun-29 04:33N 01°14' E 103°47'0 0.0
2015-Jun-29 03:33N 01°14' E 103°47'0 0.0
2015-Jun-29 02:33N 01°14' E 103°47'0 0.0
2015-Jun-29 01:33N 01°14' E 103°47'0 0.0
2015-Jun-29 00:15N 01°14' E 103°47'0 0.0
2015-Jun-28 23:21N 01°14' E 103°47'0 0.0
2015-Jun-28 22:33N 01°14' E 103°47'0 0.0
2015-Jun-28 21:27N 01°14' E 103°47'0 0.0
2015-Jun-28 20:30N 01°14' E 103°47'0 0.0
2015-Jun-28 19:27N 01°14' E 103°47'0 0.0
2015-Jun-28 18:33N 01°14' E 103°47'0 0.0
2015-Jun-28 17:21N 01°14' E 103°47'0 0.0
2015-Jun-28 16:30N 01°14' E 103°47'0 0.0
2015-Jun-28 15:30N 01°14' E 103°47'0 0.0
2015-Jun-28 14:33N 01°14' E 103°47'0 0.0
2015-Jun-28 13:30N 01°14' E 103°47'0 0.0
2015-Jun-28 12:33N 01°14' E 103°47'0 0.0
2015-Jun-28 11:33N 01°14' E 103°47'0 0.0
2015-Jun-28 10:33N 01°14' E 103°47'0 0.0
2015-Jun-28 09:30N 01°14' E 103°47'0 0.0
2015-Jun-28 08:33N 01°14' E 103°47'0 0.0
2015-Jun-28 07:33N 01°14' E 103°47'0 0.0
2015-Jun-28 06:30N 01°14' E 103°47'0 0.0
2015-Jun-28 05:30N 01°14' E 103°47'0 0.0
2015-Jun-28 04:27N 01°14' E 103°47'0 0.0
2015-Jun-28 03:33N 01°14' E 103°47'2 1.6
2015-Jun-28 02:33N 01°15' E 103°48'0 0.2
2015-Jun-28 01:31N 01°15' E 103°48'0 0.0
2015-Jun-28 00:31N 01°15' E 103°48'0 0.0
2015-Jun-27 23:16N 01°15' E 103°48'0 0.0
2015-Jun-27 22:28N 01°15' E 103°48'0 0.0
2015-Jun-27 21:25N 01°15' E 103°48'0 0.1
2015-Jun-27 20:31N 01°15' E 103°48'0 0.0
2015-Jun-27 19:31N 01°15' E 103°48'0 0.0
2015-Jun-27 18:28N 01°15' E 103°48'0 0.0
2015-Jun-27 17:31N 01°15' E 103°48'0 0.0
2015-Jun-27 16:31N 01°15' E 103°48'0 0.0
2015-Jun-27 15:31N 01°15' E 103°48'0 0.0
2015-Jun-27 14:34N 01°15' E 103°48'2 1.0
2015-Jun-27 12:19N 01°13' E 103°50'1 1.1
2015-Jun-27 11:33N 01°12' E 103°50'10 9.7
2015-Jun-27 10:33N 01°16' E 103°59'  
Track history (hours):
 
Tides and Currents Weather Stations Pressure Air Temp Water Temp Dewpoint Dewpoint Depression Visibility Wind Speed Wind Dir Waves Ship Positions

Fu Ning Wan

Last reported at 2015-Jul-06 01:28 UTC. Time now 2015-Jul-06 02:54 UTC.
Position N 23°03' E 113°19'.

Length 107 m; draft 6.6 m.

Type: Tanker. MMSI: 477003600.

Date/timePositionNaut miles runAvg speedWind from/ knotsBaromVisibWave heightAir tempDewpointWater temp
2015-Jul-06 01:28N 23°03' E 113°19'0 0.0
2015-Jul-06 00:28N 23°03' E 113°19'0 0.0
2015-Jul-05 22:16N 23°03' E 113°19'0 0.0
2015-Jul-05 20:28N 23°03' E 113°19'0 0.0
2015-Jul-05 19:10N 23°03' E 113°19'0 0.0
2015-Jul-05 18:10N 23°03' E 113°19'0 0.0
2015-Jul-05 17:16N 23°03' E 113°19'0 0.0
2015-Jul-05 16:04N 23°03' E 113°19'0 0.0
2015-Jul-05 15:16N 23°03' E 113°19'0 0.0
2015-Jul-05 14:22N 23°03' E 113°19'0 0.0
2015-Jul-05 13:10N 23°03' E 113°19'0 0.0
2015-Jul-05 08:10N 23°03' E 113°19'0 0.0
2015-Jul-05 07:33N 23°03' E 113°19'3 2.7
2015-Jul-05 06:33N 23°02' E 113°21'5 4.9
2015-Jul-05 05:33N 23°05' E 113°26'8 7.8
2015-Jul-05 04:33N 22°59' E 113°32'10 9.5
2015-Jul-05 03:33N 22°50' E 113°35'3511.8
2015-Jul-05 00:33N 22°16' E 113°48'9 7.8
2015-Jul-04 23:22N 22°07' E 113°46'0 0.1
2015-Jul-04 22:22N 22°07' E 113°46'0 0.0
2015-Jul-04 21:28N 22°07' E 113°46'0 0.0
2015-Jul-04 20:28N 22°07' E 113°46'0 0.0
2015-Jul-04 19:22N 22°07' E 113°46'0 0.1
2015-Jul-04 18:28N 22°07' E 113°46'0 0.0
2015-Jul-04 17:28N 22°07' E 113°46'0 0.0
2015-Jul-04 16:28N 22°07' E 113°46'1 1.5
2015-Jul-04 15:33N 22°07' E 113°47'  
2015-Jun-29 10:33N 01°13' E 103°54'6 6.2
2015-Jun-29 09:33N 01°13' E 103°48'2 0.6
2015-Jun-29 06:30N 01°14' E 103°47'0 0.0
2015-Jun-29 05:15N 01°14' E 103°47'0 0.0
2015-Jun-29 04:33N 01°14' E 103°47'0 0.0
2015-Jun-29 03:33N 01°14' E 103°47'0 0.0
2015-Jun-29 02:33N 01°14' E 103°47'0 0.0
2015-Jun-29 01:33N 01°14' E 103°47'0 0.0
2015-Jun-29 00:15N 01°14' E 103°47'0 0.0
2015-Jun-28 23:21N 01°14' E 103°47'0 0.0
2015-Jun-28 22:33N 01°14' E 103°47'0 0.0
2015-Jun-28 21:27N 01°14' E 103°47'0 0.0
2015-Jun-28 20:30N 01°14' E 103°47'0 0.0
2015-Jun-28 19:27N 01°14' E 103°47'0 0.0
2015-Jun-28 18:33N 01°14' E 103°47'0 0.0
2015-Jun-28 17:21N 01°14' E 103°47'0 0.0
2015-Jun-28 16:30N 01°14' E 103°47'0 0.0
2015-Jun-28 15:30N 01°14' E 103°47'0 0.0
2015-Jun-28 14:33N 01°14' E 103°47'0 0.0
2015-Jun-28 13:30N 01°14' E 103°47'0 0.0
2015-Jun-28 12:33N 01°14' E 103°47'0 0.0
2015-Jun-28 11:33N 01°14' E 103°47'0 0.0
2015-Jun-28 10:33N 01°14' E 103°47'0 0.0
2015-Jun-28 09:30N 01°14' E 103°47'0 0.0
2015-Jun-28 08:33N 01°14' E 103°47'0 0.0
2015-Jun-28 07:33N 01°14' E 103°47'0 0.0
2015-Jun-28 06:30N 01°14' E 103°47'0 0.0
2015-Jun-28 05:30N 01°14' E 103°47'0 0.0
2015-Jun-28 04:27N 01°14' E 103°47'0 0.0
2015-Jun-28 03:33N 01°14' E 103°47'2 1.6
2015-Jun-28 02:33N 01°15' E 103°48'0 0.2
2015-Jun-28 01:31N 01°15' E 103°48'0 0.0
2015-Jun-28 00:31N 01°15' E 103°48'0 0.0
2015-Jun-27 23:16N 01°15' E 103°48'0 0.0
2015-Jun-27 22:28N 01°15' E 103°48'0 0.0
2015-Jun-27 21:25N 01°15' E 103°48'0 0.1
2015-Jun-27 20:31N 01°15' E 103°48'0 0.0
2015-Jun-27 19:31N 01°15' E 103°48'0 0.0
2015-Jun-27 18:28N 01°15' E 103°48'0 0.0
2015-Jun-27 17:31N 01°15' E 103°48'0 0.0
2015-Jun-27 16:31N 01°15' E 103°48'0 0.0
2015-Jun-27 15:31N 01°15' E 103°48'0 0.0
2015-Jun-27 14:34N 01°15' E 103°48'2 1.0
2015-Jun-27 12:19N 01°13' E 103°50'1 1.1
2015-Jun-27 11:33N 01°12' E 103°50'10 9.7
2015-Jun-27 10:33N 01°16' E 103°59'  

Dump ship's entire track history